Flight Track Log - Related Links

Times and Time Zones

All times are in EDT time to prevent confusion due to time zone crossing. See the UAL5900 flight status page for this flight to view local times or setup timezone preferences in your user account.

Time Position Orientation Groundspeed Altitude Reporting Facility
EDT Latitude Longitude Course Direction KTS MPH feet Rate Location/Type
Sun 03:39:12 PM 44.7394 -85.5264 190° South 191 220 2,200  Level Minneapolis Center
Sun 03:40:13 PM 44.7219 -85.4594 110° East 209 241 4,200 2,195 Climbing Minneapolis Center
Sun 03:41:15 PM 44.6581 -85.4486 173° South 229 264 6,700 2,488 Climbing Minneapolis Center
Sun 03:42:00 PM 44.4884 -85.5825 187° South  Level FlightAware Approximate
Sun 03:42:16 PM 44.5789 -85.4806 196° South 244 281 9,300  Level Minneapolis Center
Sun 03:43:00 PM 44.4271 -85.5932 190° South  Level FlightAware Approximate
Sun 03:43:17 PM 44.5056 -85.5072 195° South 261 300 10,900  Level Minneapolis Center
Sun 03:44:00 PM 44.3662 -85.6085 190° South  Level FlightAware Approximate
Sun 03:44:19 PM 44.4178 -85.5386 194° South 306 352 11,900  Level Minneapolis Center
Sun 03:45:20 PM 44.3269 -85.5717 195° South 329 379 13,500 1,574 Climbing Minneapolis Center
Sun 03:46:21 PM 44.2339 -85.6058 195° South 339 390 15,100 1,415 Climbing Minneapolis Center
Sun 03:47:23 PM 44.1408 -85.6400 195° South 343 395 16,400 1,156 Climbing Minneapolis Center
Sun 03:48:36 PM 44.0436 -85.6756 195° South 351 404 17,700 1,022 Climbing Minneapolis Center
Sun 03:49:38 PM 43.9253 -85.7181 195° South 362 417 18,700 1,122 Climbing Minneapolis Center
Sun 03:50:39 PM 43.8256 -85.7542 195° South 369 425 20,000 1,230 Climbing Minneapolis Center
Sun 03:51:40 PM 43.7244 -85.7917 195° South 374 430 21,200 878 Climbing Minneapolis Center
Sun 03:52:42 PM 43.6253 -85.8192 191° South 371 427 21,800 293 Climbing Minneapolis Center
Sun 03:53:43 PM 43.5131 -85.8453 190° South 352 405 21,800 -443 Level Minneapolis Center
Sun 03:54:44 PM 43.4217 -85.8689 191° South 342 394 20,900 -878 Descending Minneapolis Center
Sun 03:55:46 PM 43.3308 -85.8914 190° South 336 387 20,000 -470 Descending Minneapolis Center
Sun 03:56:39 PM 43.2617 -85.9089 190° South 325 374 20,000  Level Chicago Center
Sun 03:57:41 PM 43.1717 -85.9314 190° South 327 376 20,000  Level Chicago Center
Sun 03:58:43 PM 43.0650 -85.9581 190° South 329 379 20,000  Level Chicago Center
Sun 03:59:45 PM 42.9753 -85.9819 191° South 350 403 20,000  Level Chicago Center
Sun 04:00:47 PM 42.8831 -86.0533 210° Southwest 377 434 20,000  Level Chicago Center
Sun 04:01:49 PM 42.7803 -86.1492 214° Southwest 374 430 20,000  Level Chicago Center
Sun 04:02:51 PM 42.6933 -86.2289 214° Southwest 377 434 20,000  Level Chicago Center
Sun 04:03:53 PM 42.6317 -86.3389 233° Southwest 375 432 20,000 -145 Level Chicago Center
Sun 04:04:55 PM 42.6078 -86.4747 257° West 371 427 19,700 -1,065 Descending Chicago Center
Sun 04:05:57 PM 42.5814 -86.6100 255° West 370 426 17,800 -1,776 Descending Chicago Center
Sun 04:07:00 PM 42.5569 -86.7444 256° West 367 422 16,000 -2,064 Descending Chicago Center
Sun 04:08:02 PM 42.5219 -86.8711 249° West 364 419 13,500 -2,274 Descending Chicago Center
Sun 04:09:04 PM 42.4822 -87.0147 249° West 344 396 11,300 -1,839 Descending Chicago Center
Sun 04:10:06 PM 42.4542 -87.1131 249° West 287 330 9,700 -1,113 Descending Chicago Center
Sun 04:11:08 PM 42.4283 -87.2050 249° West 266 306 9,000 -774 Descending Chicago Center
Sun 04:12:10 PM 42.4053 -87.2953 251° West 257 296 8,100 -919 Descending Chicago Center
Sun 04:13:12 PM 42.3817 -87.3831 250° West 250 288 7,100 -532 Descending Chicago Center
Sun 04:14:14 PM 42.3517 -87.4886 249° West 252 290 7,000 -48 Descending Chicago Center
Sun 04:15:16 PM 42.3039 -87.5553 226° Southwest 255 293 7,000  Level Chicago Center
Sun 04:16:18 PM 42.2508 -87.6181 221° Southwest 255 293 7,000 -435 Level Chicago Center
Sun 04:17:20 PM 42.1961 -87.6761 218° Southwest 252 290 6,100 -1,113 Descending Chicago Center
Sun 04:18:22 PM 42.1486 -87.7292 220° Southwest 229 264 4,700 -1,379 Descending Chicago Center
Sun 04:18:47 PM 42.1167 -87.7500 206° Southwest 208 239 4,100 -1,253 Descending Chicago TRACON
Sun 04:19:53 PM 42.0833 -87.8000 228° Southwest 184 212 2,800 -1,182 Descending Chicago TRACON

Login

Don't have an account? Register now (free) for customized features, flight alerts, and more!